sensor_id;sensor_type;location;lat;lon;timestamp;pressure;altitude;pressure_sealevel;temperature;humidity
53671;BME280;39571;48.612;8.088;2023-03-15T08:06:08;100110.50;;;6.60;100.00
53671;BME280;39571;48.612;8.088;2023-03-15T08:08:33;100109.38;;;7.61;100.00
53671;BME280;39571;48.612;8.088;2023-03-15T08:10:59;100102.56;;;8.10;100.00
53671;BME280;39571;48.612;8.088;2023-03-15T08:13:24;100113.03;;;8.24;100.00
53671;BME280;39571;48.612;8.088;2023-03-15T08:15:50;100100.84;;;8.21;95.32
53671;BME280;39571;48.612;8.088;2023-03-15T08:18:15;100112.19;;;8.90;93.18
53671;BME280;39571;48.612;8.088;2023-03-15T08:20:40;100113.72;;;9.67;88.80
53671;BME280;39571;48.612;8.088;2023-03-15T08:23:06;100102.53;;;10.85;77.28
53671;BME280;39571;48.612;8.088;2023-03-15T08:25:33;100090.22;;;12.36;71.18
53671;BME280;39571;48.612;8.088;2023-03-15T08:27:59;100080.78;;;14.48;59.25
53671;BME280;39571;48.612;8.088;2023-03-15T08:30:25;100076.41;;;16.07;50.86
53671;BME280;39571;48.612;8.088;2023-03-15T08:32:50;100075.28;;;16.96;45.55
53671;BME280;39571;48.612;8.088;2023-03-15T08:35:20;100082.59;;;15.14;45.48
53671;BME280;39571;48.612;8.088;2023-03-15T08:37:46;100089.44;;;14.53;46.63
53671;BME280;39571;48.612;8.088;2023-03-15T08:40:15;100086.13;;;15.45;46.21
53671;BME280;39571;48.612;8.088;2023-03-15T08:45:25;100085.69;;;17.01;42.92
53671;BME280;39571;48.612;8.088;2023-03-15T08:47:55;100081.03;;;17.82;41.53
53671;BME280;39571;48.612;8.088;2023-03-15T08:50:21;100088.00;;;16.59;40.42
53671;BME280;39571;48.612;8.088;2023-03-15T08:52:46;100098.09;;;16.45;41.73
53671;BME280;39571;48.612;8.088;2023-03-15T08:55:11;100096.06;;;16.54;41.36
53671;BME280;39571;48.612;8.088;2023-03-15T08:57:38;100099.19;;;16.39;41.41
53671;BME280;39571;48.612;8.088;2023-03-15T09:00:05;100105.25;;;16.71;40.92
53671;BME280;39571;48.612;8.088;2023-03-15T09:42:58;100096.13;;;24.10;25.76
53671;BME280;39571;48.612;8.088;2023-03-15T09:46:02;100092.81;;;24.61;25.05
53671;BME280;39571;48.612;8.088;2023-03-15T09:51:37;100093.69;;;23.79;25.36
53671;BME280;39571;48.612;8.088;2023-03-15T09:54:17;100095.47;;;23.34;25.87
53671;BME280;39571;48.612;8.088;2023-03-15T09:56:59;100096.56;;;23.02;26.88
53671;BME280;39571;48.612;8.088;2023-03-15T09:59:35;100098.81;;;22.00;27.36
53671;BME280;39571;48.612;8.088;2023-03-15T10:02:23;100103.34;;;22.15;27.72
53671;BME280;39571;48.612;8.088;2023-03-15T10:04:53;100118.19;;;21.71;27.42
53671;BME280;39571;48.612;8.088;2023-03-15T10:07:20;100115.53;;;20.66;29.72
53671;BME280;39571;48.612;8.088;2023-03-15T10:09:46;100119.69;;;21.59;28.48
53671;BME280;39571;48.612;8.088;2023-03-15T10:12:17;100105.91;;;22.32;27.82
53671;BME280;39571;48.612;8.088;2023-03-15T10:20:34;100120.72;;;22.22;27.90
53671;BME280;39571;48.612;8.088;2023-03-15T10:23:11;100111.41;;;21.13;27.49
53671;BME280;39571;48.612;8.088;2023-03-15T10:25:39;100121.50;;;19.17;30.37
53671;BME280;39571;48.612;8.088;2023-03-15T10:28:25;100122.63;;;17.29;32.46
53671;BME280;39571;48.612;8.088;2023-03-15T10:30:52;100117.28;;;15.65;35.14
53671;BME280;39571;48.612;8.088;2023-03-15T10:33:49;100127.19;;;14.54;37.65
53671;BME280;39571;48.612;8.088;2023-03-15T10:36:17;100128.16;;;13.69;39.34
53671;BME280;39571;48.612;8.088;2023-03-15T10:38:44;100135.41;;;13.07;40.67
53671;BME280;39571;48.612;8.088;2023-03-15T10:41:11;100139.06;;;12.98;41.56
53671;BME280;39571;48.612;8.088;2023-03-15T10:43:39;100142.38;;;13.12;42.29
53671;BME280;39571;48.612;8.088;2023-03-15T10:46:23;100142.69;;;12.36;42.55
53671;BME280;39571;48.612;8.088;2023-03-15T10:48:56;100140.13;;;11.64;43.46
53671;BME280;39571;48.612;8.088;2023-03-15T10:51:28;100135.53;;;11.85;43.64
53671;BME280;39571;48.612;8.088;2023-03-15T10:54:23;100152.06;;;11.09;46.27
53671;BME280;39571;48.612;8.088;2023-03-15T10:57:14;100137.53;;;11.60;46.72
53671;BME280;39571;48.612;8.088;2023-03-15T11:00:02;100141.88;;;10.74;46.78
53671;BME280;39571;48.612;8.088;2023-03-15T11:02:48;100128.81;;;10.70;49.29
53671;BME280;39571;48.612;8.088;2023-03-15T11:05:15;100130.75;;;10.46;50.56
53671;BME280;39571;48.612;8.088;2023-03-15T11:07:56;100140.59;;;10.02;51.61
53671;BME280;39571;48.612;8.088;2023-03-15T11:10:25;100136.25;;;9.98;53.19
53671;BME280;39571;48.612;8.088;2023-03-15T11:13:18;100130.06;;;10.20;53.98
53671;BME280;39571;48.612;8.088;2023-03-15T11:15:58;100128.22;;;10.36;54.63
53671;BME280;39571;48.612;8.088;2023-03-15T11:18:49;100125.34;;;10.71;54.34
53671;BME280;39571;48.612;8.088;2023-03-15T11:21:15;100109.50;;;10.83;54.18
53671;BME280;39571;48.612;8.088;2023-03-15T11:23:46;100112.28;;;10.66;52.71
53671;BME280;39571;48.612;8.088;2023-03-15T11:26:19;100109.16;;;10.11;53.15
53671;BME280;39571;48.612;8.088;2023-03-15T11:28:49;100106.59;;;10.02;53.75
53671;BME280;39571;48.612;8.088;2023-03-15T11:31:19;100107.44;;;10.05;54.14
53671;BME280;39571;48.612;8.088;2023-03-15T11:34:11;100107.34;;;10.27;54.10
53671;BME280;39571;48.612;8.088;2023-03-15T11:36:41;100096.72;;;10.49;53.17
53671;BME280;39571;48.612;8.088;2023-03-15T11:39:12;100100.38;;;10.27;51.58
53671;BME280;39571;48.612;8.088;2023-03-15T11:41:55;100110.00;;;10.19;51.70
53671;BME280;39571;48.612;8.088;2023-03-15T11:44:37;100102.13;;;10.21;53.20
53671;BME280;39571;48.612;8.088;2023-03-15T11:47:12;100106.47;;;10.26;53.64
53671;BME280;39571;48.612;8.088;2023-03-15T11:49:50;100102.16;;;10.11;53.04
53671;BME280;39571;48.612;8.088;2023-03-15T11:52:18;100108.34;;;9.97;53.33
53671;BME280;39571;48.612;8.088;2023-03-15T11:54:45;100113.75;;;9.60;53.62
53671;BME280;39571;48.612;8.088;2023-03-15T11:57:35;100115.59;;;9.31;54.47
53671;BME280;39571;48.612;8.088;2023-03-15T12:03:24;100112.19;;;8.84;57.83
53671;BME280;39571;48.612;8.088;2023-03-15T12:08:53;100107.00;;;8.78;59.09
53671;BME280;39571;48.612;8.088;2023-03-15T12:16:22;100099.19;;;8.58;61.37
53671;BME280;39571;48.612;8.088;2023-03-15T12:18:50;100095.69;;;8.44;62.02
53671;BME280;39571;48.612;8.088;2023-03-15T12:21:20;100105.25;;;8.46;63.18
53671;BME280;39571;48.612;8.088;2023-03-15T12:23:59;100100.91;;;8.50;64.22
53671;BME280;39571;48.612;8.088;2023-03-15T12:29:01;100094.81;;;8.65;65.53
53671;BME280;39571;48.612;8.088;2023-03-15T12:32:07;100091.34;;;8.56;65.29
53671;BME280;39571;48.612;8.088;2023-03-15T12:34:50;100094.81;;;8.58;66.53
53671;BME280;39571;48.612;8.088;2023-03-15T12:37:21;100103.50;;;8.63;70.38
53671;BME280;39571;48.612;8.088;2023-03-15T12:56:28;100099.09;;;9.23;70.98
53671;BME280;39571;48.612;8.088;2023-03-15T12:59:04;100103.47;;;9.06;83.75
53671;BME280;39571;48.612;8.088;2023-03-15T13:01:31;100107.84;;;8.92;100.00
53671;BME280;39571;48.612;8.088;2023-03-15T13:03:57;100109.59;;;8.91;100.00
53671;BME280;39571;48.612;8.088;2023-03-15T13:09:34;100101.75;;;8.81;100.00
53671;BME280;39571;48.612;8.088;2023-03-15T13:12:14;100097.44;;;8.72;100.00
53671;BME280;39571;48.612;8.088;2023-03-15T13:14:58;100096.56;;;8.75;100.00
53671;BME280;39571;48.612;8.088;2023-03-15T13:17:32;100110.47;;;8.74;100.00
53671;BME280;39571;48.612;8.088;2023-03-15T13:28:33;100116.56;;;8.44;100.00
53671;BME280;39571;48.612;8.088;2023-03-15T13:31:10;100113.94;;;8.48;100.00
53671;BME280;39571;48.612;8.088;2023-03-15T13:33:38;100119.16;;;8.57;100.00
53671;BME280;39571;48.612;8.088;2023-03-15T13:36:09;100119.16;;;8.42;100.00
53671;BME280;39571;48.612;8.088;2023-03-15T13:41:05;100128.72;;;8.40;100.00
53671;BME280;39571;48.612;8.088;2023-03-15T13:53:53;100123.50;;;8.42;100.00
53671;BME280;39571;48.612;8.088;2023-03-15T13:56:30;100117.41;;;8.62;100.00
53671;BME280;39571;48.612;8.088;2023-03-15T13:58:57;100116.56;;;8.68;100.00
53671;BME280;39571;48.612;8.088;2023-03-15T14:01:23;100111.31;;;8.73;100.00
53671;BME280;39571;48.612;8.088;2023-03-15T14:49:11;100141.53;;;7.71;100.00
53671;BME280;39571;48.612;8.088;2023-03-15T15:00:43;100140.66;;;7.76;100.00
53671;BME280;39571;48.612;8.088;2023-03-15T15:11:05;100157.25;;;7.89;100.00
53671;BME280;39571;48.612;8.088;2023-03-15T15:29:42;100150.34;;;8.15;100.00
